Time,TemperatureF,DewpointF,PressureIn,WindDirection,WindDirectionDegrees,WindSpeedMPH,WindSpeedGustMPH,Humidity,HourlyPrecipIn,Conditions,Clouds,dailyrainin,SolarRadiationWatts/m^2,SoftwareType,DateUTC
2013-04-15 07:10:00,34.3,20.6,29.99,NE,40,1.0,3.0,57,0.00,,,0.00,98,Wunderground v.1.15,2013-04-15 14:10:00,
2013-04-15 07:20:00,34.6,20.9,30.00,NE,41,1.0,3.0,57,0.00,,,0.00,149,Wunderground v.1.15,2013-04-15 14:20:00,
2013-04-15 07:25:00,34.8,20.7,30.00,NE,45,1.0,3.0,56,0.00,,,0.00,186,Wunderground v.1.15,2013-04-15 14:25:00,
2013-04-15 07:35:00,35.7,20.7,30.00,NE,54,2.0,4.0,54,0.00,,,0.00,232,Wunderground v.1.15,2013-04-15 14:35:00,
2013-04-15 07:40:00,36.0,20.5,30.01,NNE,32,2.0,2.0,53,0.00,,,0.00,230,Wunderground v.1.15,2013-04-15 14:40:00,
2013-04-15 07:45:00,36.2,20.7,30.00,NNE,27,2.0,3.0,53,0.00,,,0.00,239,Wunderground v.1.15,2013-04-15 14:45:00,
2013-04-15 07:50:00,36.3,20.8,30.00,NE,48,2.0,2.0,53,0.00,,,0.00,272,Wunderground v.1.15,2013-04-15 14:50:00,
2013-04-15 07:55:00,36.9,20.9,30.01,NE,34,2.0,5.0,52,0.00,,,0.00,294,Wunderground v.1.15,2013-04-15 14:55:00,
2013-04-15 08:00:00,36.9,20.9,30.01,North,355,2.0,5.0,52,0.00,,,0.00,308,Wunderground v.1.15,2013-04-15 15:00:00,
2013-04-15 08:05:00,37.0,20.5,30.01,NE,47,3.0,6.0,51,0.00,,,0.00,315,Wunderground v.1.15,2013-04-15 15:05:00,
2013-04-15 08:10:00,37.7,20.7,30.01,NE,41,2.0,2.0,50,0.00,,,0.00,334,Wunderground v.1.15,2013-04-15 15:10:00,
2013-04-15 08:15:00,37.4,20.4,30.01,North,355,2.0,6.0,50,0.00,,,0.00,339,Wunderground v.1.15,2013-04-15 15:15:00,
2013-04-15 08:20:00,37.7,19.8,30.02,NE,50,3.0,3.0,48,0.00,,,0.00,357,Wunderground v.1.15,2013-04-15 15:20:00,
2013-04-15 08:25:00,37.8,20.3,30.01,NE,42,2.0,6.0,49,0.00,,,0.00,359,Wunderground v.1.15,2013-04-15 15:25:00,
2013-04-15 08:30:00,37.9,20.4,30.01,NE,45,2.0,2.0,49,0.00,,,0.00,388,Wunderground v.1.15,2013-04-15 15:30:00,
2013-04-15 08:40:00,38.4,20.4,30.02,ENE,69,3.0,3.0,48,0.00,,,0.00,60,Wunderground v.1.15,2013-04-15 15:40:00,
2013-04-15 08:45:00,38.7,20.7,30.02,NNE,13,3.0,7.0,48,0.00,,,0.00,90,Wunderground v.1.15,2013-04-15 15:45:00,
2013-04-15 08:50:00,38.6,20.6,30.02,NE,38,2.0,7.0,48,0.00,,,0.00,134,Wunderground v.1.15,2013-04-15 15:50:00,
2013-04-15 08:55:00,38.8,19.8,30.02,NNE,19,2.0,7.0,46,0.00,,,0.00,95,Wunderground v.1.15,2013-04-15 15:55:00,
2013-04-15 09:00:00,38.9,20.4,30.02,NNE,24,3.0,7.0,47,0.00,,,0.00,74,Wunderground v.1.15,2013-04-15 16:00:00,
2013-04-15 09:05:00,39.0,20.5,30.02,NNE,20,3.0,7.0,47,0.00,,,0.00,95,Wunderground v.1.15,2013-04-15 16:05:00,
2013-04-15 09:10:00,39.3,19.7,30.02,NE,36,4.0,9.0,45,0.00,,,0.00,90,Wunderground v.1.15,2013-04-15 16:10:00,
2013-04-15 09:15:00,39.0,18.9,30.02,East,84,6.0,9.0,44,0.00,,,0.00,93,Wunderground v.1.15,2013-04-15 16:15:00,
2013-04-15 09:20:00,38.8,18.7,30.02,NE,56,5.0,7.0,44,0.00,,,0.00,98,Wunderground v.1.15,2013-04-15 16:20:00,
2013-04-15 09:25:00,38.9,19.3,30.02,NNE,17,4.0,7.0,45,0.00,,,0.00,105,Wunderground v.1.15,2013-04-15 16:25:00,
2013-04-15 09:30:00,39.1,18.5,30.02,NE,40,5.0,5.0,43,0.00,,,0.00,109,Wunderground v.1.15,2013-04-15 16:30:00,
2013-04-15 09:35:00,39.3,19.2,30.02,ENE,66,4.0,11.0,44,0.00,,,0.00,111,Wunderground v.1.15,2013-04-15 16:35:00,
2013-04-15 09:45:00,39.8,19.6,30.02,NNE,28,4.0,11.0,44,0.00,,,0.00,141,Wunderground v.1.15,2013-04-15 16:45:00,
2013-04-15 09:50:00,39.6,19.5,30.02,NE,55,5.0,11.0,44,0.00,,,0.00,144,Wunderground v.1.15,2013-04-15 16:50:00,
2013-04-15 09:55:00,39.5,18.8,30.02,ESE,107,4.0,11.0,43,0.00,,,0.00,151,Wunderground v.1.15,2013-04-15 16:55:00,
2013-04-15 10:00:00,39.6,19.5,30.02,ENE,64,3.0,11.0,44,0.00,,,0.00,148,Wunderground v.1.15,2013-04-15 17:00:00,
2013-04-15 10:05:00,39.7,19.0,30.02,ENE,65,4.0,13.0,43,0.00,,,0.00,160,Wunderground v.1.15,2013-04-15 17:05:00,
2013-04-15 10:15:00,40.3,19.5,30.02,ESE,111,4.0,13.0,43,0.00,,,0.00,148,Wunderground v.1.15,2013-04-15 17:15:00,
2013-04-15 10:20:00,40.4,19.6,30.02,NNE,13,4.0,13.0,43,0.00,,,0.00,148,Wunderground v.1.15,2013-04-15 17:20:00,
2013-04-15 10:25:00,41.1,20.3,30.02,NE,34,4.0,13.0,43,0.00,,,0.00,176,Wunderground v.1.15,2013-04-15 17:25:00,
2013-04-15 10:30:00,41.4,20.0,30.02,East,93,3.0,13.0,42,0.00,,,0.00,691,Wunderground v.1.15,2013-04-15 17:30:00,
2013-04-15 10:35:00,41.6,19.6,30.02,NE,46,4.0,13.0,41,0.00,,,0.00,717,Wunderground v.1.15,2013-04-15 17:35:00,
2013-04-15 10:40:00,42.0,20.0,30.02,ENE,70,4.0,4.0,41,0.00,,,0.00,684,Wunderground v.1.15,2013-04-15 17:40:00,
2013-04-15 10:50:00,42.5,19.8,30.02,East,91,3.0,3.0,40,0.00,,,0.00,735,Wunderground v.1.15,2013-04-15 17:50:00,
2013-04-15 10:55:00,42.8,21.3,30.02,NNE,27,3.0,4.0,42,0.00,,,0.00,721,Wunderground v.1.15,2013-04-15 17:55:00,
2013-04-15 11:00:00,43.4,20.7,30.02,ESE,103,3.0,13.0,40,0.00,,,0.00,682,Wunderground v.1.15,2013-04-15 18:00:00,
2013-04-15 11:10:00,43.1,20.4,30.02,East,84,4.0,4.0,40,0.00,,,0.00,758,Wunderground v.1.15,2013-04-15 18:10:00,
2013-04-15 11:15:00,43.0,20.3,30.02,ENE,78,4.0,8.0,40,0.00,,,0.00,768,Wunderground v.1.15,2013-04-15 18:15:00,
2013-04-15 11:20:00,43.6,21.4,30.02,East,93,4.0,11.0,41,0.00,,,0.00,782,Wunderground v.1.15,2013-04-15 18:20:00,
2013-04-15 11:25:00,43.8,21.0,30.02,East,89,4.0,11.0,40,0.00,,,0.00,796,Wunderground v.1.15,2013-04-15 18:25:00,
2013-04-15 11:30:00,44.0,21.2,30.02,NE,47,4.0,11.0,40,0.00,,,0.00,796,Wunderground v.1.15,2013-04-15 18:30:00,
2013-04-15 11:35:00,43.8,21.0,30.02,ENE,76,4.0,11.0,40,0.00,,,0.00,800,Wunderground v.1.15,2013-04-15 18:35:00,
2013-04-15 11:40:00,44.5,20.4,30.02,NNE,27,4.0,4.0,38,0.00,,,0.00,819,Wunderground v.1.15,2013-04-15 18:40:00,
2013-04-15 11:45:00,44.5,21.6,30.02,NNE,22,4.0,10.0,40,0.00,,,0.00,830,Wunderground v.1.15,2013-04-15 18:45:00,
2013-04-15 11:50:00,44.6,21.1,30.02,ESE,111,4.0,4.0,39,0.00,,,0.00,849,Wunderground v.1.15,2013-04-15 18:50:00,
2013-04-15 11:55:00,45.1,21.6,30.02,NE,39,3.0,10.0,39,0.00,,,0.00,854,Wunderground v.1.15,2013-04-15 18:55:00,
2013-04-15 12:00:00,45.5,21.3,30.02,East,85,3.0,10.0,38,0.00,,,0.00,881,Wunderground v.1.15,2013-04-15 19:00:00,
2013-04-15 12:05:00,45.8,22.2,30.02,NE,36,3.0,13.0,39,0.00,,,0.00,933,Wunderground v.1.15,2013-04-15 19:05:00,
2013-04-15 12:10:00,44.9,20.2,30.02,East,96,3.0,13.0,37,0.00,,,0.00,130,Wunderground v.1.15,2013-04-15 19:10:00,
2013-04-15 12:15:00,44.0,20.0,30.02,North,5,3.0,13.0,38,0.00,,,0.00,190,Wunderground v.1.15,2013-04-15 19:15:00,
2013-04-15 12:25:00,46.1,21.2,30.02,NNE,32,3.0,13.0,37,0.00,,,0.00,1013,Wunderground v.1.15,2013-04-15 19:25:00,
2013-04-15 12:30:00,46.3,20.8,30.02,NE,35,4.0,4.0,36,0.00,,,0.00,1060,Wunderground v.1.15,2013-04-15 19:30:00,
2013-04-15 12:35:00,46.5,21.6,30.02,NNE,23,4.0,9.0,37,0.00,,,0.00,200,Wunderground v.1.15,2013-04-15 19:35:00,
2013-04-15 12:40:00,45.4,20.6,30.02,ENE,69,3.0,9.0,37,0.00,,,0.00,197,Wunderground v.1.15,2013-04-15 19:40:00,
2013-04-15 12:45:00,44.3,19.6,30.02,ESE,106,4.0,9.0,37,0.00,,,0.00,369,Wunderground v.1.15,2013-04-15 19:45:00,
2013-04-15 13:05:00,44.6,19.9,30.02,East,97,3.0,9.0,37,0.00,,,0.00,311,Wunderground v.1.15,2013-04-15 20:05:00,
2013-04-15 13:10:00,44.8,21.3,30.02,East,90,2.0,9.0,39,0.00,,,0.00,311,Wunderground v.1.15,2013-04-15 20:10:00,
2013-04-15 13:15:00,45.3,21.8,30.02,East,84,2.0,9.0,39,0.00,,,0.00,452,Wunderground v.1.15,2013-04-15 20:15:00,
2013-04-15 13:20:00,45.5,21.3,30.02,ENE,67,3.0,9.0,38,0.00,,,0.00,371,Wunderground v.1.15,2013-04-15 20:20:00,
2013-04-15 13:25:00,46.2,22.0,30.02,NE,36,4.0,9.0,38,0.00,,,0.00,960,Wunderground v.1.15,2013-04-15 20:25:00,
2013-04-15 13:30:00,47.0,23.3,30.02,East,98,4.0,9.0,39,0.00,,,0.00,986,Wunderground v.1.15,2013-04-15 20:30:00,
2013-04-15 13:35:00,47.7,23.3,30.02,East,83,3.0,13.0,38,0.00,,,0.00,1123,Wunderground v.1.15,2013-04-15 20:35:00,
2013-04-15 13:40:00,46.0,20.5,30.02,East,88,4.0,13.0,36,0.00,,,0.00,267,Wunderground v.1.15,2013-04-15 20:40:00,
2013-04-15 13:50:00,46.7,21.1,30.02,NNE,18,3.0,13.0,36,0.00,,,0.00,991,Wunderground v.1.15,2013-04-15 20:50:00,
2013-04-15 14:00:00,47.3,22.9,30.02,ENE,58,3.0,3.0,38,0.00,,,0.00,1071,Wunderground v.1.15,2013-04-15 21:00:00,
2013-04-15 14:05:00,47.2,22.2,30.02,ENE,64,3.0,7.0,37,0.00,,,0.00,524,Wunderground v.1.15,2013-04-15 21:05:00,
2013-04-15 14:15:00,47.3,21.7,30.02,NNE,28,4.0,12.0,36,0.00,,,0.00,413,Wunderground v.1.15,2013-04-15 21:15:00,
2013-04-15 14:20:00,46.7,19.8,30.02,ENE,60,4.0,12.0,34,0.00,,,0.00,297,Wunderground v.1.15,2013-04-15 21:20:00,
2013-04-15 14:25:00,45.6,19.5,30.02,ENE,62,5.0,12.0,35,0.00,,,0.00,359,Wunderground v.1.15,2013-04-15 21:25:00,
2013-04-15 14:30:00,46.5,20.3,30.02,NNE,22,4.0,12.0,35,0.00,,,0.00,816,Wunderground v.1.15,2013-04-15 21:30:00,
2013-04-15 14:35:00,47.7,23.9,30.02,ENE,66,3.0,12.0,39,0.00,,,0.00,1025,Wunderground v.1.15,2013-04-15 21:35:00,
2013-04-15 14:45:00,46.7,20.5,30.02,NE,48,4.0,12.0,35,0.00,,,0.00,278,Wunderground v.1.15,2013-04-15 21:45:00,
2013-04-15 14:50:00,46.3,20.1,30.02,NE,52,3.0,12.0,35,0.00,,,0.00,279,Wunderground v.1.15,2013-04-15 21:50:00,
2013-04-15 14:55:00,46.5,19.6,30.02,NE,55,3.0,12.0,34,0.00,,,0.00,861,Wunderground v.1.15,2013-04-15 21:55:00,
2013-04-15 15:00:00,47.1,20.8,30.02,North,5,4.0,12.0,35,0.00,,,0.00,350,Wunderground v.1.15,2013-04-15 22:00:00,
2013-04-15 15:05:00,47.7,22.0,30.02,NE,55,3.0,12.0,36,0.00,,,0.00,385,Wunderground v.1.15,2013-04-15 22:05:00,
2013-04-15 15:15:00,46.9,20.0,30.03,ENE,75,4.0,11.0,34,0.00,,,0.00,211,Wunderground v.1.15,2013-04-15 22:15:00,
2013-04-15 15:20:00,46.4,19.5,30.03,ENE,67,4.0,11.0,34,0.00,,,0.00,214,Wunderground v.1.15,2013-04-15 22:20:00,
2013-04-15 15:25:00,46.0,19.2,30.03,ENE,69,3.0,11.0,34,0.00,,,0.00,371,Wunderground v.1.15,2013-04-15 22:25:00,
2013-04-15 15:30:00,46.8,20.6,30.03,North,5,3.0,3.0,35,0.00,,,0.00,534,Wunderground v.1.15,2013-04-15 22:30:00,
2013-04-15 15:35:00,47.7,22.0,30.03,NE,49,2.0,5.0,36,0.00,,,0.00,232,Wunderground v.1.15,2013-04-15 22:35:00,
2013-04-15 15:45:00,46.8,20.6,30.03,ENE,65,4.0,10.0,35,0.00,,,0.00,232,Wunderground v.1.15,2013-04-15 22:45:00,
2013-04-15 15:55:00,46.3,19.4,30.03,East,84,4.0,10.0,34,0.00,,,0.00,225,Wunderground v.1.15,2013-04-15 22:55:00,
2013-04-15 16:05:00,47.1,20.8,30.03,ENE,59,4.0,10.0,35,0.00,,,0.00,763,Wunderground v.1.15,2013-04-15 23:05:00,
2013-04-15 16:10:00,47.2,21.6,30.03,NE,43,5.0,9.0,36,0.00,,,0.00,424,Wunderground v.1.15,2013-04-15 23:10:00,
2013-04-15 16:20:00,46.5,20.3,30.03,NNE,28,5.0,5.0,35,0.00,,,0.00,179,Wunderground v.1.15,2013-04-15 23:20:00,
2013-04-15 16:25:00,46.2,19.3,30.03,NNE,12,4.0,9.0,34,0.00,,,0.00,211,Wunderground v.1.15,2013-04-15 23:25:00,
2013-04-15 16:30:00,46.2,20.0,30.03,NE,55,4.0,9.0,35,0.00,,,0.00,199,Wunderground v.1.15,2013-04-15 23:30:00,
2013-04-15 16:35:00,46.3,20.8,30.03,NE,48,4.0,13.0,36,0.00,,,0.00,575,Wunderground v.1.15,2013-04-15 23:35:00,
2013-04-15 16:45:00,45.9,19.8,30.04,NE,51,5.0,13.0,35,0.00,,,0.00,114,Wunderground v.1.15,2013-04-15 23:45:00,
2013-04-15 16:55:00,46.2,20.7,30.04,ENE,75,5.0,13.0,36,0.00,,,0.00,475,Wunderground v.1.15,2013-04-15 23:55:00,
2013-04-15 17:05:00,46.9,20.6,30.04,NE,56,5.0,9.0,35,0.00,,,0.00,100,Wunderground v.1.15,2013-04-16 00:05:00,
2013-04-15 17:10:00,46.8,19.9,30.05,ENE,77,4.0,4.0,34,0.00,,,0.00,97,Wunderground v.1.15,2013-04-16 00:10:00,